Terminal Aerodrome Forecast
Issued by NWS Tallahassee, FL

Home | Current Version | Previous Version | Text Only | Print | Product List | Glossary On
Versions: 1 2 3 4 5 6 7 8 9 10 11 12 13 14 15 16 17 18
000
FTUS42 KTAE 220521
TAFTLH
TAF
KTLH 220521Z 2206/2306 35005KT P6SM SCT060 BKN250
     FM221400 36006KT P6SM SCT150
     FM230100 05005KT P6SM SKC=

USA.gov is the U.S. government's official web portal to all federal, state and local government web resources and services.